createdAt,value
2023-01-19T00:01:35.521Z,0.10
2023-01-19T00:04:02.228Z,0.20
2023-01-19T00:06:28.976Z,0.10
2023-01-19T00:08:55.634Z,0.10
2023-01-19T00:11:22.372Z,0.10
2023-01-19T00:13:52.592Z,0.00
2023-01-19T00:16:19.296Z,0.00
2023-01-19T00:18:46.010Z,-0.10
2023-01-19T00:21:14.795Z,0.00
2023-01-19T00:23:41.418Z,0.00
2023-01-19T00:26:08.819Z,0.00
2023-01-19T00:28:35.434Z,0.00
2023-01-19T00:31:02.029Z,-0.10
2023-01-19T00:33:28.600Z,-0.10
2023-01-19T00:35:55.214Z,-0.10
2023-01-19T00:38:21.788Z,-0.10
2023-01-19T00:40:48.486Z,-0.10
2023-01-19T00:43:15.122Z,-0.10
2023-01-19T00:45:42.245Z,-0.10
2023-01-19T00:48:08.872Z,-0.10
2023-01-19T00:50:35.477Z,-0.10
2023-01-19T00:53:02.876Z,-0.10
2023-01-19T00:55:29.674Z,-0.10
2023-01-19T00:57:56.261Z,-0.20
2023-01-19T01:00:22.952Z,-0.20
2023-01-19T01:02:49.621Z,-0.20
2023-01-19T01:05:16.235Z,-0.30
2023-01-19T01:07:44.698Z,-0.30
2023-01-19T01:10:11.350Z,-0.30
2023-01-19T01:12:37.932Z,-0.30
2023-01-19T01:15:04.526Z,-0.30
2023-01-19T01:17:31.133Z,-0.30
2023-01-19T01:19:57.747Z,-0.40
2023-01-19T01:22:24.318Z,-0.30
2023-01-19T01:24:51.123Z,-0.30
2023-01-19T01:27:17.712Z,-0.40
2023-01-19T01:29:46.554Z,-0.30
2023-01-19T01:32:13.219Z,-0.40
2023-01-19T01:34:39.829Z,-0.40
2023-01-19T01:37:08.258Z,-0.40
2023-01-19T01:42:38.105Z,-0.40
2023-01-19T01:45:06.172Z,-0.40
2023-01-19T01:47:32.808Z,-0.40
2023-01-19T01:49:59.436Z,-0.40
2023-01-19T01:52:26.096Z,-0.40
2023-01-19T01:54:52.955Z,-0.40
2023-01-19T01:57:19.548Z,-0.40
2023-01-19T01:59:46.265Z,-0.40
2023-01-19T02:02:31.588Z,-0.50
2023-01-19T02:04:58.150Z,-0.50
2023-01-19T02:07:43.663Z,-0.50
2023-01-19T02:10:29.110Z,-0.60
2023-01-19T02:13:14.191Z,-0.60
2023-01-19T02:15:40.797Z,-0.60
2023-01-19T02:18:07.421Z,-0.60
2023-01-19T02:20:34.040Z,-0.60
2023-01-19T02:23:01.578Z,-0.70
2023-01-19T02:25:28.451Z,-0.70
2023-01-19T02:27:55.045Z,-0.70
2023-01-19T02:30:21.623Z,-0.80
2023-01-19T02:32:48.310Z,-0.80
2023-01-19T02:35:14.938Z,-0.90
2023-01-19T02:37:41.609Z,-0.90
2023-01-19T02:40:08.196Z,-1.00
2023-01-19T02:42:34.850Z,-1.10
2023-01-19T02:45:06.713Z,-1.20
2023-01-19T02:47:33.349Z,-1.30
2023-01-19T02:49:59.983Z,-1.30
2023-01-19T02:52:26.600Z,-1.30
2023-01-19T02:54:54.153Z,-1.40
2023-01-19T02:57:20.850Z,-1.50
2023-01-19T02:59:47.482Z,-1.50
2023-01-19T03:02:14.188Z,-1.60
2023-01-19T03:04:40.849Z,-1.50
2023-01-19T03:07:07.506Z,-1.60
2023-01-19T03:09:34.169Z,-1.70
2023-01-19T03:12:00.743Z,-1.70
2023-01-19T03:14:27.458Z,-1.80
2023-01-19T03:16:55.333Z,-1.80
2023-01-19T03:19:22.075Z,-1.80
2023-01-19T03:21:48.716Z,-1.80
2023-01-19T03:24:15.542Z,-1.90
2023-01-19T03:26:43.108Z,-1.90
2023-01-19T03:29:09.814Z,-1.90
2023-01-19T03:31:36.796Z,-1.90
2023-01-19T03:34:03.449Z,-1.90
2023-01-19T03:36:30.086Z,-1.90
2023-01-19T03:38:57.427Z,-2.00
2023-01-19T03:41:24.012Z,-2.00
2023-01-19T03:43:51.962Z,-2.00
2023-01-19T03:46:18.879Z,-2.00
2023-01-19T03:48:45.969Z,-2.10
2023-01-19T03:51:13.429Z,-2.10
2023-01-19T03:53:40.036Z,-2.10
2023-01-19T03:56:06.671Z,-2.10
2023-01-19T03:58:33.234Z,-2.10
2023-01-19T04:00:59.871Z,-2.00
2023-01-19T04:03:26.460Z,-2.10
2023-01-19T04:05:53.033Z,-2.10
2023-01-19T04:08:19.626Z,-2.10
2023-01-19T04:10:46.271Z,-2.10
2023-01-19T04:13:12.880Z,-2.10
2023-01-19T04:15:39.722Z,-2.10
2023-01-19T04:18:06.991Z,-2.10
2023-01-19T04:20:33.930Z,-2.00
2023-01-19T04:23:01.029Z,-2.00
2023-01-19T04:25:27.955Z,-1.90
2023-01-19T04:27:55.122Z,-2.00
2023-01-19T04:30:22.656Z,-1.90
2023-01-19T04:32:49.392Z,-1.80
2023-01-19T04:35:16.989Z,-1.80
2023-01-19T04:37:44.977Z,-1.80
2023-01-19T04:40:11.607Z,-1.90
2023-01-19T04:42:38.208Z,-1.80
2023-01-19T04:45:04.787Z,-1.90
2023-01-19T04:47:31.404Z,-1.90
2023-01-19T04:49:58.069Z,-1.80
2023-01-19T04:52:25.497Z,-1.90
2023-01-19T04:54:52.871Z,-1.90
2023-01-19T04:57:19.577Z,-1.90
2023-01-19T04:59:46.223Z,-1.90
2023-01-19T05:02:12.878Z,-1.80
2023-01-19T05:04:39.488Z,-1.80
2023-01-19T05:07:06.113Z,-1.80
2023-01-19T05:09:32.770Z,-1.80
2023-01-19T05:11:59.387Z,-1.80
2023-01-19T05:14:25.954Z,-1.80
2023-01-19T05:16:52.579Z,-1.70
2023-01-19T05:19:19.197Z,-1.80
2023-01-19T05:21:45.750Z,-1.70
2023-01-19T05:24:12.382Z,-1.80
2023-01-19T05:26:39.116Z,-1.80
2023-01-19T05:29:05.728Z,-1.80
2023-01-19T05:31:32.380Z,-1.90
2023-01-19T05:33:58.989Z,-1.80
2023-01-19T05:36:25.567Z,-1.80
2023-01-19T05:38:52.173Z,-1.80
2023-01-19T05:41:18.922Z,-1.80
2023-01-19T05:43:45.510Z,-1.80
2023-01-19T05:46:12.125Z,-1.80
2023-01-19T05:48:39.167Z,-1.80
2023-01-19T05:51:05.816Z,-1.80
2023-01-19T05:53:32.444Z,-1.80
2023-01-19T05:55:59.279Z,-1.80
2023-01-19T05:58:25.984Z,-1.80
2023-01-19T06:00:52.653Z,-1.80
2023-01-19T06:03:19.310Z,-1.70
2023-01-19T06:05:45.924Z,-1.70
2023-01-19T06:08:12.794Z,-1.80
2023-01-19T06:10:39.404Z,-1.90
2023-01-19T06:13:06.048Z,-1.90
2023-01-19T06:15:32.727Z,-1.90
2023-01-19T06:17:59.324Z,-2.00
2023-01-19T06:20:25.953Z,-2.00
2023-01-19T06:22:52.563Z,-2.00
2023-01-19T06:25:19.251Z,-2.10
2023-01-19T06:27:46.231Z,-2.10
2023-01-19T06:30:12.898Z,-2.10
2023-01-19T06:32:39.473Z,-2.10
2023-01-19T06:35:06.328Z,-2.10
2023-01-19T06:37:33.248Z,-2.10
2023-01-19T06:39:59.922Z,-2.10
2023-01-19T06:42:26.511Z,-2.10
2023-01-19T06:44:53.152Z,-2.10
2023-01-19T06:47:19.753Z,-2.10
2023-01-19T06:49:46.409Z,-2.20
2023-01-19T06:52:15.951Z,-2.20
2023-01-19T06:54:43.609Z,-2.20
2023-01-19T06:57:12.132Z,-2.20
2023-01-19T06:59:39.023Z,-2.20
2023-01-19T07:02:25.891Z,-2.30
2023-01-19T07:04:52.319Z,-2.20
2023-01-19T07:07:18.904Z,-2.30
2023-01-19T07:09:45.489Z,-2.30
2023-01-19T07:12:12.093Z,-2.30
2023-01-19T07:14:38.744Z,-2.30
2023-01-19T07:17:05.349Z,-2.30
2023-01-19T07:19:31.927Z,-2.30
2023-01-19T07:21:59.153Z,-2.30
2023-01-19T07:24:25.711Z,-2.30
2023-01-19T07:26:52.340Z,-2.30
2023-01-19T07:29:19.124Z,-2.20
2023-01-19T07:31:45.798Z,-2.20
2023-01-19T07:34:12.631Z,-2.30
2023-01-19T07:36:39.266Z,-2.20
2023-01-19T07:39:05.904Z,-2.30
2023-01-19T07:41:32.656Z,-2.20
2023-01-19T07:43:59.289Z,-2.30
2023-01-19T07:46:25.907Z,-2.20
2023-01-19T07:48:52.561Z,-2.30
2023-01-19T07:51:19.298Z,-2.30
2023-01-19T07:53:45.974Z,-2.30
2023-01-19T07:56:12.821Z,-2.30
2023-01-19T07:58:39.441Z,-2.30
2023-01-19T08:01:06.274Z,-2.30
2023-01-19T08:03:33.661Z,-2.30
2023-01-19T08:06:00.477Z,-2.30
2023-01-19T08:08:27.240Z,-2.30
2023-01-19T08:10:53.889Z,-2.40
2023-01-19T08:13:20.476Z,-2.30
2023-01-19T08:15:47.163Z,-2.30
2023-01-19T08:18:15.720Z,-2.30
2023-01-19T08:20:42.333Z,-2.30
2023-01-19T08:23:08.902Z,-2.30
2023-01-19T08:25:35.591Z,-2.30
2023-01-19T08:28:02.270Z,-2.30
2023-01-19T08:30:28.981Z,-2.20
2023-01-19T08:33:03.861Z,-2.20
2023-01-19T08:35:30.646Z,-2.20
2023-01-19T08:38:01.087Z,-2.20
2023-01-19T08:40:27.780Z,-2.20
2023-01-19T08:42:54.560Z,-2.20
2023-01-19T08:45:21.222Z,-2.20
2023-01-19T08:47:47.881Z,-2.20
2023-01-19T08:50:14.477Z,-2.20
2023-01-19T08:52:41.049Z,-2.20
2023-01-19T08:55:07.747Z,-2.10
2023-01-19T08:57:34.445Z,-2.10
2023-01-19T09:00:01.158Z,-2.20
2023-01-19T09:02:27.989Z,-2.20
2023-01-19T09:04:54.704Z,-2.20
2023-01-19T09:07:21.280Z,-2.10
2023-01-19T09:09:47.988Z,-2.10
2023-01-19T09:12:14.823Z,-2.10
2023-01-19T09:14:41.492Z,-2.10
2023-01-19T09:17:08.162Z,-2.10
2023-01-19T09:19:35.158Z,-2.10
2023-01-19T09:22:01.897Z,-2.10
2023-01-19T09:24:28.780Z,-2.10
2023-01-19T09:26:55.629Z,-2.00
2023-01-19T09:29:22.867Z,-2.00
2023-01-19T09:31:49.760Z,-1.90
2023-01-19T09:34:16.433Z,-1.90
2023-01-19T09:36:43.070Z,-1.80
2023-01-19T09:39:11.074Z,-1.70
2023-01-19T09:41:38.659Z,-1.70
2023-01-19T09:44:05.411Z,-1.60
2023-01-19T09:46:32.176Z,-1.50
2023-01-19T09:48:58.923Z,-1.40
2023-01-19T09:51:25.634Z,-1.30
2023-01-19T09:53:52.425Z,-1.20
2023-01-19T09:56:19.511Z,-1.10
2023-01-19T09:58:46.923Z,-0.90
2023-01-19T10:01:13.576Z,-0.80
2023-01-19T10:03:40.265Z,-0.70
2023-01-19T10:06:06.909Z,-0.60
2023-01-19T10:08:33.540Z,-0.50
2023-01-19T10:11:00.273Z,-0.40
2023-01-19T10:13:26.922Z,-0.40
2023-01-19T10:15:53.638Z,-0.20
2023-01-19T10:18:20.275Z,-0.10
2023-01-19T10:20:46.996Z,0.00
2023-01-19T10:23:13.567Z,0.10
2023-01-19T10:25:40.203Z,0.20
2023-01-19T10:28:06.838Z,0.30
2023-01-19T10:30:33.497Z,0.40
2023-01-19T10:33:00.661Z,0.40
2023-01-19T10:35:27.629Z,0.50
2023-01-19T10:37:54.789Z,0.70
2023-01-19T10:40:21.471Z,0.70
2023-01-19T10:42:48.136Z,0.80
2023-01-19T10:45:14.753Z,0.90
2023-01-19T10:47:41.373Z,1.00
2023-01-19T10:50:08.768Z,1.10
2023-01-19T10:52:35.378Z,1.20
2023-01-19T10:55:01.986Z,1.20
2023-01-19T10:57:28.613Z,1.20
2023-01-19T10:59:55.263Z,1.30
2023-01-19T11:02:22.492Z,1.40
2023-01-19T11:04:50.177Z,1.40
2023-01-19T11:07:16.973Z,1.50
2023-01-19T11:09:43.676Z,1.60
2023-01-19T11:12:10.311Z,1.60
2023-01-19T11:14:36.933Z,1.60
2023-01-19T11:17:03.521Z,1.70
2023-01-19T11:19:30.148Z,1.80
2023-01-19T11:21:56.738Z,1.90
2023-01-19T11:24:23.405Z,1.90
2023-01-19T11:26:50.142Z,2.00
2023-01-19T11:29:16.734Z,2.10
2023-01-19T11:31:43.319Z,2.20
2023-01-19T11:34:10.060Z,2.20
2023-01-19T11:36:36.658Z,2.20
2023-01-19T11:39:04.229Z,2.30
2023-01-19T11:41:30.882Z,2.40
2023-01-19T11:43:57.459Z,2.50
2023-01-19T11:46:24.063Z,2.60
2023-01-19T11:48:50.726Z,2.80
2023-01-19T11:51:17.374Z,2.80
2023-01-19T11:53:44.027Z,2.90
2023-01-19T11:56:10.613Z,3.00
2023-01-19T11:58:37.233Z,3.00
2023-01-19T12:01:03.958Z,3.00
2023-01-19T12:03:30.827Z,3.10
2023-01-19T12:05:57.533Z,3.20
2023-01-19T12:08:24.208Z,3.30
2023-01-19T12:10:50.919Z,3.30
2023-01-19T12:13:17.517Z,3.50
2023-01-19T12:15:44.638Z,3.70
2023-01-19T12:18:11.284Z,3.80
2023-01-19T12:20:38.858Z,3.80
2023-01-19T12:23:05.558Z,3.80
2023-01-19T12:25:32.206Z,4.00
2023-01-19T12:27:59.281Z,4.00
2023-01-19T12:30:25.911Z,4.10
2023-01-19T12:32:52.537Z,4.20
2023-01-19T12:35:19.184Z,4.20
2023-01-19T12:37:45.829Z,4.20
2023-01-19T12:40:12.419Z,4.20
2023-01-19T12:42:39.067Z,4.20
2023-01-19T12:45:05.734Z,4.20
2023-01-19T12:47:32.597Z,4.40
2023-01-19T12:50:05.884Z,4.30
2023-01-19T12:52:34.450Z,4.40
2023-01-19T12:55:01.195Z,4.30
2023-01-19T12:57:28.350Z,4.30
2023-01-19T12:59:54.962Z,4.20
2023-01-19T13:02:21.881Z,4.20
2023-01-19T13:04:48.509Z,4.30
2023-01-19T13:07:18.077Z,4.30
2023-01-19T13:09:44.674Z,4.40
2023-01-19T13:12:11.293Z,4.50
2023-01-19T13:14:37.989Z,4.50
2023-01-19T13:17:05.255Z,4.60
2023-01-19T13:19:31.990Z,4.60
2023-01-19T13:21:58.834Z,4.70
2023-01-19T13:24:26.046Z,4.60
2023-01-19T13:26:52.697Z,4.60
2023-01-19T13:29:19.289Z,4.60
2023-01-19T13:31:46.116Z,4.50
2023-01-19T13:34:12.879Z,4.50
2023-01-19T13:36:41.320Z,4.40
2023-01-19T13:39:07.959Z,4.40
2023-01-19T13:41:34.600Z,4.50
2023-01-19T13:44:01.330Z,4.40
2023-01-19T13:46:28.336Z,4.40
2023-01-19T13:48:55.611Z,4.40
2023-01-19T13:51:22.241Z,4.40
2023-01-19T13:53:48.831Z,4.40
2023-01-19T13:56:15.544Z,4.40
2023-01-19T13:58:42.333Z,4.50
2023-01-19T14:01:09.227Z,4.40
2023-01-19T14:03:35.897Z,4.40
2023-01-19T14:06:03.470Z,4.40
2023-01-19T14:08:31.341Z,4.30
2023-01-19T14:11:00.184Z,4.40
2023-01-19T14:13:26.837Z,4.50
2023-01-19T14:15:54.982Z,4.70
2023-01-19T14:18:21.780Z,5.00
2023-01-19T14:20:48.352Z,5.20
2023-01-19T14:23:15.005Z,5.40
2023-01-19T14:25:41.580Z,5.50
2023-01-19T14:28:08.310Z,5.80
2023-01-19T14:30:36.766Z,5.80
2023-01-19T14:33:03.494Z,5.70
2023-01-19T14:35:30.602Z,5.70
2023-01-19T14:37:57.396Z,5.70
2023-01-19T14:40:24.789Z,5.60
2023-01-19T14:42:52.684Z,5.60
2023-01-19T14:45:21.673Z,5.40
2023-01-19T14:47:48.392Z,5.20
2023-01-19T14:50:14.969Z,5.10
2023-01-19T14:52:41.743Z,4.90
2023-01-19T14:55:08.817Z,4.80
2023-01-19T14:57:36.687Z,4.70
2023-01-19T15:00:03.334Z,4.60
2023-01-19T15:02:30.016Z,4.60
2023-01-19T15:04:57.924Z,4.50
2023-01-19T15:07:24.658Z,4.50
2023-01-19T15:09:51.477Z,4.40
2023-01-19T15:12:18.106Z,4.30
2023-01-19T15:14:45.122Z,4.30
2023-01-19T15:17:11.722Z,4.20
2023-01-19T15:19:38.459Z,4.20
2023-01-19T15:22:05.565Z,4.10
2023-01-19T15:24:32.431Z,4.10
2023-01-19T15:27:02.017Z,4.00
2023-01-19T15:29:29.494Z,4.00
2023-01-19T15:31:57.293Z,3.90
2023-01-19T15:34:23.952Z,3.80
2023-01-19T15:36:50.564Z,3.80
2023-01-19T15:39:17.605Z,3.70
2023-01-19T15:41:44.256Z,3.60
2023-01-19T15:44:11.467Z,3.60
2023-01-19T15:46:38.450Z,3.60
2023-01-19T15:49:06.083Z,3.50
2023-01-19T15:51:33.692Z,3.50
2023-01-19T15:54:00.595Z,3.30
2023-01-19T15:56:27.616Z,3.30
2023-01-19T15:58:54.529Z,3.20
2023-01-19T16:01:21.838Z,3.20
2023-01-19T16:03:48.652Z,3.20
2023-01-19T16:06:19.384Z,3.20
2023-01-19T16:08:46.053Z,3.30
2023-01-19T16:11:12.803Z,3.30
2023-01-19T16:13:39.636Z,3.20
2023-01-19T16:16:06.402Z,3.10
2023-01-19T16:18:33.212Z,3.10
2023-01-19T16:20:59.889Z,3.00
2023-01-19T16:23:26.557Z,2.90
2023-01-19T16:25:53.477Z,2.80
2023-01-19T16:28:20.365Z,2.90
2023-01-19T16:30:47.512Z,2.90
2023-01-19T16:33:14.205Z,2.90
2023-01-19T16:35:40.918Z,2.90
2023-01-19T16:38:09.714Z,2.90
2023-01-19T16:40:36.770Z,2.90
2023-01-19T16:43:03.447Z,2.80
2023-01-19T16:45:30.236Z,2.70
2023-01-19T16:47:57.326Z,2.70
2023-01-19T16:50:24.013Z,2.50
2023-01-19T16:52:50.952Z,2.50
2023-01-19T16:55:17.590Z,2.40
2023-01-19T16:57:44.197Z,2.30
2023-01-19T17:00:11.007Z,2.20
2023-01-19T17:02:37.959Z,2.10
2023-01-19T17:05:04.919Z,2.00
2023-01-19T17:07:31.783Z,1.90
2023-01-19T17:09:58.514Z,1.80
2023-01-19T17:12:25.085Z,1.70
2023-01-19T17:14:51.750Z,1.60
2023-01-19T17:17:18.417Z,1.50
2023-01-19T17:19:45.214Z,1.40
2023-01-19T17:22:12.948Z,1.30
2023-01-19T17:24:42.475Z,1.30
2023-01-19T17:27:09.230Z,1.20
2023-01-19T17:29:35.836Z,1.10
2023-01-19T17:32:02.448Z,1.10
2023-01-19T17:34:29.028Z,1.10
2023-01-19T17:37:02.774Z,1.10
2023-01-19T17:39:29.581Z,1.10
2023-01-19T17:41:56.229Z,1.10
2023-01-19T17:44:22.842Z,1.00
2023-01-19T17:46:49.481Z,1.10
2023-01-19T17:49:16.239Z,1.00
2023-01-19T17:51:42.932Z,1.00
2023-01-19T17:54:11.072Z,0.90
2023-01-19T17:56:38.848Z,0.90
2023-01-19T17:59:06.589Z,0.90
2023-01-19T18:01:33.838Z,0.80
2023-01-19T18:04:02.596Z,0.70
2023-01-19T18:06:29.232Z,0.70
2023-01-19T18:08:55.882Z,0.60
2023-01-19T18:11:22.699Z,0.50
2023-01-19T18:13:49.622Z,0.30
2023-01-19T18:16:16.301Z,0.30
2023-01-19T18:18:44.095Z,0.20
2023-01-19T18:21:10.809Z,0.10
2023-01-19T18:23:37.562Z,0.00
2023-01-19T18:26:04.172Z,-0.10
2023-01-19T18:28:30.860Z,-0.10
2023-01-19T18:30:57.750Z,-0.20
2023-01-19T18:33:24.487Z,-0.20
2023-01-19T18:35:51.310Z,-0.30
2023-01-19T18:38:18.050Z,-0.30
2023-01-19T18:40:44.760Z,-0.40
2023-01-19T18:43:11.535Z,-0.40
2023-01-19T18:45:40.000Z,-0.60
2023-01-19T18:48:06.656Z,-0.50
2023-01-19T18:50:33.358Z,-0.50
2023-01-19T18:52:59.993Z,-0.60
2023-01-19T18:55:26.699Z,-0.70
2023-01-19T18:57:53.804Z,-0.70
2023-01-19T19:00:20.367Z,-0.70
2023-01-19T19:02:47.018Z,-0.70
2023-01-19T19:05:13.665Z,-0.80
2023-01-19T19:07:40.348Z,-0.80
2023-01-19T19:10:07.019Z,-0.90
2023-01-19T19:12:33.607Z,-0.90
2023-01-19T19:15:00.201Z,-1.00
2023-01-19T19:17:26.823Z,-1.00
2023-01-19T19:19:53.431Z,-1.00
2023-01-19T19:22:20.049Z,-1.00
2023-01-19T19:24:46.652Z,-1.10
2023-01-19T19:27:14.522Z,-1.10
2023-01-19T19:29:41.200Z,-1.10
2023-01-19T19:32:07.825Z,-1.10
2023-01-19T19:34:34.533Z,-1.20
2023-01-19T19:37:01.497Z,-1.20
2023-01-19T19:39:28.206Z,-1.20
2023-01-19T19:41:54.925Z,-1.20
2023-01-19T19:44:21.587Z,-1.30
2023-01-19T19:46:48.175Z,-1.40
2023-01-19T19:49:17.776Z,-1.30
2023-01-19T19:51:47.389Z,-1.40
2023-01-19T19:54:14.037Z,-1.40
2023-01-19T19:56:40.609Z,-1.40
2023-01-19T19:59:07.909Z,-1.40
2023-01-19T20:01:34.784Z,-1.40
2023-01-19T20:04:02.861Z,-1.40
2023-01-19T20:06:29.465Z,-1.40
2023-01-19T20:08:56.151Z,-1.50
2023-01-19T20:11:22.807Z,-1.50
2023-01-19T20:13:50.814Z,-1.50
2023-01-19T20:16:17.448Z,-1.50
2023-01-19T20:18:44.078Z,-1.50
2023-01-19T20:21:10.671Z,-1.50
2023-01-19T20:23:37.279Z,-1.50
2023-01-19T20:26:03.888Z,-1.50
2023-01-19T20:28:30.700Z,-1.50
2023-01-19T20:30:57.574Z,-1.40
2023-01-19T20:33:24.190Z,-1.50
2023-01-19T20:35:52.201Z,-1.40
2023-01-19T20:38:18.891Z,-1.40
2023-01-19T20:40:45.683Z,-1.50
2023-01-19T20:43:12.427Z,-1.40
2023-01-19T20:45:39.265Z,-1.50
2023-01-19T20:48:05.952Z,-1.50
2023-01-19T20:50:32.603Z,-1.50
2023-01-19T20:52:59.264Z,-1.50
2023-01-19T20:55:25.888Z,-1.50
2023-01-19T20:57:52.490Z,-1.40
2023-01-19T21:00:19.093Z,-1.40
2023-01-19T21:02:45.801Z,-1.20
2023-01-19T21:05:12.703Z,-1.10
2023-01-19T21:07:39.437Z,-0.90
2023-01-19T21:10:06.088Z,-0.90
2023-01-19T21:12:32.809Z,-0.80
2023-01-19T21:15:00.079Z,-0.70
2023-01-19T21:17:26.724Z,-0.60
2023-01-19T21:19:53.379Z,-0.50
2023-01-19T21:22:20.036Z,-0.60
2023-01-19T21:24:46.725Z,-0.50
2023-01-19T21:27:13.424Z,-0.50
2023-01-19T21:29:40.944Z,-0.50
2023-01-19T21:32:07.564Z,-0.60
2023-01-19T21:34:34.204Z,-0.60
2023-01-19T21:37:01.640Z,-0.70
2023-01-19T21:39:28.257Z,-0.80
2023-01-19T21:41:54.939Z,-0.80
2023-01-19T21:44:21.575Z,-0.80
2023-01-19T21:46:48.167Z,-0.90
2023-01-19T21:49:14.952Z,-1.00
2023-01-19T21:51:41.736Z,-0.90
2023-01-19T21:54:08.512Z,-0.90
2023-01-19T21:56:35.120Z,-0.90
2023-01-19T21:59:04.844Z,-0.90
2023-01-19T22:01:31.495Z,-0.90
2023-01-19T22:03:58.215Z,-0.80
2023-01-19T22:06:24.853Z,-0.90
2023-01-19T22:08:51.523Z,-0.80
2023-01-19T22:11:18.144Z,-0.80
2023-01-19T22:13:44.707Z,-0.80
2023-01-19T22:16:11.369Z,-0.80
2023-01-19T22:18:38.024Z,-0.90
2023-01-19T22:21:04.666Z,-0.90
2023-01-19T22:23:31.261Z,-0.90
2023-01-19T22:25:57.878Z,-0.90
2023-01-19T22:28:24.488Z,-0.90
2023-01-19T22:30:51.325Z,-0.90
2023-01-19T22:33:18.043Z,-0.90
2023-01-19T22:35:44.592Z,-0.90
2023-01-19T22:38:11.188Z,-0.90
2023-01-19T22:40:38.269Z,-0.90
2023-01-19T22:43:04.890Z,-0.90
2023-01-19T22:45:31.460Z,-0.90
2023-01-19T22:47:58.041Z,-0.90
2023-01-19T22:50:24.628Z,-0.90
2023-01-19T22:52:51.199Z,-0.80
2023-01-19T22:55:17.859Z,-0.80
2023-01-19T22:57:44.430Z,-0.80
2023-01-19T23:00:11.010Z,-0.70
2023-01-19T23:02:37.584Z,-0.60
2023-01-19T23:05:04.185Z,-0.50
2023-01-19T23:07:30.808Z,-0.40
2023-01-19T23:09:57.466Z,-0.40
2023-01-19T23:12:24.081Z,-0.30
2023-01-19T23:14:50.682Z,-0.10
2023-01-19T23:17:17.364Z,-0.10
2023-01-19T23:19:44.098Z,-0.10
2023-01-19T23:22:10.787Z,0.00
2023-01-19T23:24:37.360Z,0.00
2023-01-19T23:27:03.948Z,0.10
2023-01-19T23:29:30.869Z,0.30
2023-01-19T23:31:57.529Z,0.20
2023-01-19T23:34:24.182Z,0.30
2023-01-19T23:36:50.759Z,0.40
2023-01-19T23:39:17.347Z,0.50
2023-01-19T23:41:43.954Z,0.50
2023-01-19T23:44:10.584Z,0.50
2023-01-19T23:46:37.183Z,0.60
2023-01-19T23:49:03.763Z,0.50
2023-01-19T23:51:30.473Z,0.60
2023-01-19T23:53:57.029Z,0.60
2023-01-19T23:56:23.606Z,0.60
2023-01-19T23:58:50.256Z,0.60
